This is the latest recevied weather packets stored in our database for station/object DL9CN-10. If no packets are shown the sender has not sent any weather packets the latest 10 day(s).
| Time | Temp. | Humidity | Pressure | Rain* | Wind** | Luminosity | Snow |
|---|---|---|---|---|---|---|---|
| 1777142246 | 24.44° C | 36% | 1018.7 hPa | - | - | - | - |
| 1777141346 | 25° C | 36% | 1018.5 hPa | - | - | - | - |
| 1777140446 | 25° C | 36% | 1018.3 hPa | - | - | - | - |
| 1777139546 | 25° C | 37% | 1018.3 hPa | - | - | - | - |
| 1777138646 | 25° C | 38% | 1018.1 hPa | - | - | - | - |
| 1777137746 | 25° C | 38% | 1018 hPa | - | - | - | - |
| 1777136846 | 25° C | 39% | 1018.1 hPa | - | - | - | - |
| 1777135946 | 25° C | 39% | 1018 hPa | - | - | - | - |
| 1777135045 | 24.44° C | 40% | 1018 hPa | - | - | - | - |
| 1777134148 | 24.44° C | 40% | 1018 hPa | - | - | - | - |
| 1777133248 | 24.44° C | 41% | 1018 hPa | - | - | - | - |
| 1777132348 | 24.44° C | 42% | 1018 hPa | - | - | - | - |
| 1777131448 | 24.44° C | 43% | 1018 hPa | - | - | - | - |
| 1777130548 | 23.89° C | 43% | 1018.1 hPa | - | - | - | - |
| 1777129647 | 23.89° C | 44% | 1018.2 hPa | - | - | - | - |
| 1777128747 | 23.89° C | 44% | 1018.3 hPa | - | - | - | - |
| 1777127847 | 23.33° C | 44% | 1018.4 hPa | - | - | - | - |
| 1777126947 | 23.33° C | 44% | 1018.5 hPa | - | - | - | - |
| 1777126047 | 23.33° C | 44% | 1018.6 hPa | - | - | - | - |
| 1777125147 | 22.78° C | 44% | 1018.6 hPa | - | - | - | - |
| 1777124247 | 22.22° C | 45% | 1018.8 hPa | - | - | - | - |
| 1777123346 | 22.22° C | 45% | 1018.8 hPa | - | - | - | - |
| 1777122446 | 21.67° C | 45% | 1019 hPa | - | - | - | - |
| 1777121546 | 21.67° C | 45% | 1019.1 hPa | - | - | - | - |
| 1777120646 | 21.11° C | 45% | 1019.2 hPa | - | - | - | - |
* Rain since midnight (hover to see other rain measurements)
** Current wind speed in m/s (hover to see current wind gust speed)